Chippewa Lake, Michigan
Current Conditions -  °F | °C
As of 4:35 PM on Friday 24 Oct 2014 (Local Time) from KRQB Reporting Station
Overcast Overcast  
Wind Chill: 55°   Ceiling: 1100
Heat Index: 55°   Visibility: 10mi
Dew Point: 53°   Wind: 7mph
Humidity: 96%   Direction: 250°WSW
Pressure: 29.95"   Gusts: NA
Location:  43.74°N, 85.3°W
Report Text: KRQB 242035Z AUTO 25006KT 10SM OVC011 13/12 A2995 RMK AO2 T01260119
Loading
Personal Weather Stations






























Interactive Weather Map
Tropical Storm Tracking
New forecast layout! Learn more

10-Day Weather Forecast

Advertisements
Track Severe Weather on mobile